Strona główna
METAR-TAF:

METAR-TAF

Lotnisko :

Port lotniczy Bagdad

Bagdad, Irak

Szerokość geograficzna: 33-15-45N, Długość geograficzna: 44-14-04E, wysokość: 35 m

Aktualna obserwacja pogody

Raport powstał 29 minut temu, godzina 11:30 UTC
Wiatr 10 kt od wschodnio-południowy wschód
Temperatura 34°C
Wilgotność 28%
Ciśnienie 1013 hPa
Widzialność: 4200 m
Przerywane chmury na wysokości 3000 ft
pył

METAR: ORBI 161130Z 11010KT 4200 DU BKN030 34/13 Q1013

czas: 14:59 (11:59 UTC)

Prognoza

Raport powstał 7 godziny i 59 minut temu, godzina 04:00 UTC
Prognoza ważna od 16 godzina 06 UTC do 17 godzina 06 UTC
Wiatr 8 kt od wschodnio-południowy wschód
Widzialność: 8000 m
Rozproszone chmury na wysokości 3000 ft
Rozproszone chmury na wysokości 8000 ft

TAF: ORBI 160400Z 1606/1706 12008KT 8000 SCT030 SCT080

Obserwacja i prognoza pogody dla ponad 4000 lotnisk (raport METAR i TAF).

Dostępne stacje oznaczono żółtymi i czerwonymi punktami na mapie.

Najedź kursorem aby zobaczyć nazwę stacji.

Kliknij aby zobaczyć obserwacje i prognozy pogody.

Aby zmienić mapę: kliknij na zielony przycisk z czarnym krzyżykiem, aby powiększyć; na zielony przycisk z myślnikiem, aby pomniejszyć; na zielone strzałki, aby przejść do map sąsiednich.


METAR-TAF: